createdAt,value
2017-09-28T00:01:30.653Z,14.00
2017-09-28T00:03:59.362Z,14.20
2017-09-28T00:06:27.844Z,16.67
2017-09-28T00:08:56.504Z,15.00
2017-09-28T00:11:25.115Z,15.23
2017-09-28T00:13:53.728Z,15.40
2017-09-28T00:16:22.412Z,14.90
2017-09-28T00:18:51.029Z,14.87
2017-09-28T00:21:19.688Z,16.20
2017-09-28T00:23:48.301Z,14.70
2017-09-28T00:26:16.933Z,13.43
2017-09-28T00:28:45.587Z,13.90
2017-09-28T00:31:13.944Z,14.63
2017-09-28T00:33:42.300Z,15.53
2017-09-28T00:36:10.781Z,15.80
2017-09-28T00:38:42.402Z,13.97
2017-09-28T00:41:10.947Z,14.20
2017-09-28T00:43:39.266Z,14.00
2017-09-28T00:46:07.943Z,15.13
2017-09-28T00:48:39.081Z,15.00
2017-09-28T00:51:07.717Z,14.63
2017-09-28T00:53:36.350Z,14.23
2017-09-28T00:56:05.106Z,14.90
2017-09-28T00:58:37.805Z,13.73
2017-09-28T01:01:06.478Z,14.50
2017-09-28T01:03:35.089Z,14.07
2017-09-28T01:06:03.719Z,14.53
2017-09-28T01:08:32.402Z,15.20
2017-09-28T01:11:01.041Z,15.90
2017-09-28T01:13:29.709Z,15.20
2017-09-28T01:15:58.379Z,14.00
2017-09-28T01:18:27.052Z,15.27
2017-09-28T01:20:55.360Z,13.30
2017-09-28T01:23:24.031Z,15.27
2017-09-28T01:25:52.385Z,15.83
2017-09-28T01:28:20.745Z,16.40
2017-09-28T01:30:49.421Z,15.80
2017-09-28T01:33:18.080Z,13.43
2017-09-28T01:35:46.451Z,14.87
2017-09-28T01:38:14.750Z,15.13
2017-09-28T01:40:43.101Z,14.93
2017-09-28T01:43:11.729Z,15.50
2017-09-28T01:45:40.115Z,16.03
2017-09-28T01:48:08.827Z,14.53
2017-09-28T01:50:37.486Z,15.77
2017-09-28T01:53:06.157Z,14.60
2017-09-28T01:55:34.634Z,15.80
2017-09-28T01:58:03.270Z,15.80
2017-09-28T02:00:31.957Z,15.00
2017-09-28T02:03:00.590Z,14.70
2017-09-28T02:05:29.280Z,14.53
2017-09-28T02:07:57.955Z,16.40
2017-09-28T02:10:26.582Z,14.27
2017-09-28T02:12:55.246Z,16.50
2017-09-28T02:15:23.920Z,14.70
2017-09-28T02:17:52.626Z,14.70
2017-09-28T02:20:21.269Z,15.30
2017-09-28T02:22:49.882Z,14.40
2017-09-28T02:25:18.252Z,16.47
2017-09-28T02:27:46.695Z,14.40
2017-09-28T02:30:15.317Z,16.67
2017-09-28T02:32:43.985Z,14.73
2017-09-28T02:35:12.618Z,14.90
2017-09-28T02:37:41.322Z,15.50
2017-09-28T02:40:09.982Z,14.77
2017-09-28T02:42:38.607Z,14.87
2017-09-28T02:45:07.323Z,13.67
2017-09-28T02:47:35.952Z,14.17
2017-09-28T02:50:04.597Z,15.50
2017-09-28T02:52:33.271Z,14.30
2017-09-28T02:55:01.882Z,15.70
2017-09-28T02:57:30.569Z,17.00
2017-09-28T02:59:59.226Z,14.80
2017-09-28T03:02:27.846Z,15.00
2017-09-28T03:04:56.510Z,15.57
2017-09-28T03:07:25.140Z,14.70
2017-09-28T03:09:53.659Z,14.93
2017-09-28T03:12:22.311Z,15.03
2017-09-28T03:14:50.965Z,14.17
2017-09-28T03:17:19.587Z,14.80
2017-09-28T03:19:48.123Z,16.50
2017-09-28T03:22:16.757Z,14.87
2017-09-28T03:24:45.423Z,15.93
2017-09-28T03:27:14.037Z,14.27
2017-09-28T03:29:42.707Z,14.57
2017-09-28T03:32:11.354Z,14.70
2017-09-28T03:34:39.973Z,14.47
2017-09-28T03:37:08.634Z,15.93
2017-09-28T03:39:37.245Z,13.97
2017-09-28T03:42:05.894Z,15.80
2017-09-28T03:44:34.551Z,14.60
2017-09-28T03:47:03.330Z,14.57
2017-09-28T03:49:31.998Z,15.00
2017-09-28T03:52:00.690Z,14.77
2017-09-28T03:54:29.329Z,15.13
2017-09-28T03:56:59.250Z,16.37
2017-09-28T03:59:27.934Z,14.20
2017-09-28T04:01:56.566Z,15.40
2017-09-28T04:04:25.226Z,14.70
2017-09-28T04:06:53.875Z,14.13
2017-09-28T04:09:22.537Z,14.67
2017-09-28T04:11:51.213Z,14.40
2017-09-28T04:14:35.220Z,14.83
2017-09-28T04:17:05.001Z,16.40
2017-09-28T04:19:33.632Z,13.60
2017-09-28T04:22:02.245Z,13.83
2017-09-28T04:24:30.924Z,16.23
2017-09-28T04:26:59.652Z,14.20
2017-09-28T04:29:28.346Z,15.80
2017-09-28T04:31:56.966Z,13.53
2017-09-28T04:34:25.657Z,15.47
2017-09-28T04:36:54.594Z,13.93
2017-09-28T04:39:22.939Z,14.40
2017-09-28T04:41:51.565Z,16.40
2017-09-28T04:44:20.238Z,14.60
2017-09-28T04:46:48.876Z,14.23
2017-09-28T04:49:17.502Z,14.17
2017-09-28T04:51:46.164Z,15.50
2017-09-28T04:54:14.792Z,15.43
2017-09-28T04:56:43.496Z,14.80
2017-09-28T04:59:12.192Z,16.00
2017-09-28T05:01:40.922Z,14.17
2017-09-28T05:04:09.618Z,14.67
2017-09-28T05:06:38.234Z,13.67
2017-09-28T05:09:06.897Z,15.00
2017-09-28T05:11:35.525Z,15.20
2017-09-28T05:14:04.186Z,14.87
2017-09-28T05:16:33.197Z,15.30
2017-09-28T05:19:02.003Z,14.13
2017-09-28T05:21:30.713Z,17.03
2017-09-28T05:23:59.385Z,16.00
2017-09-28T05:26:28.051Z,15.10
2017-09-28T05:28:56.737Z,16.00
2017-09-28T05:31:25.407Z,16.17
2017-09-28T05:33:54.032Z,14.80
2017-09-28T05:36:22.540Z,15.10
2017-09-28T05:38:51.033Z,16.40
2017-09-28T05:41:19.579Z,15.53
2017-09-28T05:43:48.091Z,15.77
2017-09-28T05:46:16.712Z,17.40
2017-09-28T05:48:45.384Z,15.50
2017-09-28T05:51:14.050Z,14.77
2017-09-28T05:53:42.677Z,16.50
2017-09-28T05:56:11.363Z,15.77
2017-09-28T05:58:40.020Z,16.50
2017-09-28T06:01:08.384Z,16.30
2017-09-28T06:03:36.938Z,16.73
2017-09-28T06:06:05.637Z,16.23
2017-09-28T06:08:37.178Z,17.03
2017-09-28T06:11:05.875Z,16.50
2017-09-28T06:13:34.549Z,15.93
2017-09-28T06:16:03.177Z,16.77
2017-09-28T06:18:34.881Z,17.47
2017-09-28T06:21:03.544Z,16.63
2017-09-28T06:23:32.198Z,16.27
2017-09-28T06:26:00.856Z,17.80
2017-09-28T06:28:29.526Z,17.23
2017-09-28T06:30:58.172Z,15.50
2017-09-28T06:33:26.840Z,17.47
2017-09-28T06:36:10.864Z,16.20
2017-09-28T06:38:55.087Z,16.87
2017-09-28T06:41:38.406Z,17.00
2017-09-28T06:44:22.675Z,17.00
2017-09-28T06:47:07.393Z,16.30
2017-09-28T06:50:02.024Z,15.90
2017-09-28T06:52:31.821Z,16.73
2017-09-28T06:55:00.431Z,17.53
2017-09-28T06:57:29.069Z,16.83
2017-09-28T06:59:57.727Z,18.33
2017-09-28T07:02:40.248Z,17.10
2017-09-28T07:05:19.638Z,16.40
2017-09-28T07:08:02.687Z,18.20
2017-09-28T07:10:32.322Z,16.90
2017-09-28T07:13:00.967Z,17.50
2017-09-28T07:15:29.658Z,17.93
2017-09-28T07:17:58.277Z,18.50
2017-09-28T07:20:26.932Z,17.43
2017-09-28T07:22:55.598Z,17.37
2017-09-28T07:25:24.234Z,17.53
2017-09-28T07:27:52.904Z,17.77
2017-09-28T07:30:21.558Z,18.63
2017-09-28T07:32:50.242Z,17.53
2017-09-28T07:35:26.531Z,17.90
2017-09-28T07:37:56.378Z,19.03
2017-09-28T07:40:27.753Z,17.40
2017-09-28T07:42:58.725Z,17.37
2017-09-28T07:45:29.732Z,17.00
2017-09-28T07:47:59.546Z,17.40
2017-09-28T07:50:29.370Z,17.93
2017-09-28T07:52:59.286Z,18.80
2017-09-28T07:55:32.346Z,18.17
2017-09-28T07:58:03.074Z,18.60
2017-09-28T08:00:35.198Z,19.10
2017-09-28T08:03:04.620Z,17.33
2017-09-28T08:05:34.578Z,18.43
2017-09-28T08:08:04.948Z,16.70
2017-09-28T08:10:36.057Z,18.90
2017-09-28T08:13:18.877Z,19.20
2017-09-28T08:16:13.772Z,18.83
2017-09-28T08:21:55.959Z,17.20
2017-09-28T08:24:31.295Z,18.30
2017-09-28T08:29:45.160Z,17.00
2017-09-28T08:32:14.779Z,18.33
2017-09-28T08:34:45.476Z,18.97
2017-09-28T08:37:17.161Z,18.00
2017-09-28T08:39:46.480Z,18.47
2017-09-28T08:42:16.311Z,19.27
2017-09-28T08:45:04.336Z,19.00
2017-09-28T08:47:34.776Z,18.87
2017-09-28T08:50:07.083Z,19.90
2017-09-28T08:52:36.489Z,17.97
2017-09-28T08:55:07.845Z,19.83
2017-09-28T08:57:37.422Z,20.07
2017-09-28T09:00:07.426Z,20.47
2017-09-28T09:02:36.293Z,20.57
2017-09-28T09:05:06.335Z,21.70
2017-09-28T09:07:36.628Z,22.20
2017-09-28T09:10:06.759Z,21.50
2017-09-28T09:12:37.072Z,20.90
2017-09-28T09:15:08.151Z,20.80
2017-09-28T09:17:37.926Z,21.10
2017-09-28T09:20:07.880Z,21.57
2017-09-28T09:22:40.337Z,22.60
2017-09-28T09:25:10.349Z,22.93
2017-09-28T09:27:40.329Z,23.57
2017-09-28T09:30:10.428Z,21.83
2017-09-28T09:32:40.114Z,20.80
2017-09-28T09:35:10.455Z,22.23
2017-09-28T09:37:39.778Z,22.40
2017-09-28T09:40:10.233Z,23.30
2017-09-28T09:42:39.082Z,23.93
2017-09-28T09:45:07.701Z,22.87
2017-09-28T09:47:36.330Z,23.30
2017-09-28T09:50:04.953Z,22.67
2017-09-28T09:52:33.601Z,22.20
2017-09-28T09:55:02.283Z,22.50
2017-09-28T09:57:30.897Z,23.13
2017-09-28T09:59:59.573Z,25.67
2017-09-28T10:02:28.051Z,24.07
2017-09-28T10:04:56.558Z,22.10
2017-09-28T10:07:38.853Z,24.23
2017-09-28T10:10:26.644Z,21.07
2017-09-28T10:13:12.139Z,23.10
2017-09-28T10:15:44.988Z,22.97
2017-09-28T10:18:13.477Z,23.00
2017-09-28T10:20:41.995Z,22.97
2017-09-28T10:23:10.653Z,22.37
2017-09-28T10:25:39.322Z,25.00
2017-09-28T10:28:07.982Z,25.43
2017-09-28T10:30:36.606Z,24.27
2017-09-28T10:33:05.268Z,22.67
2017-09-28T10:35:33.894Z,24.80
2017-09-28T10:38:02.517Z,24.23
2017-09-28T10:40:31.173Z,29.13
2017-09-28T10:42:59.793Z,41.63
2017-09-28T10:45:28.473Z,36.20
2017-09-28T10:47:57.099Z,45.10
2017-09-28T10:50:25.770Z,74.80
2017-09-28T10:52:55.400Z,51.80
2017-09-28T10:55:31.844Z,46.50
2017-09-28T10:58:00.755Z,37.83
2017-09-28T11:00:29.400Z,43.80
2017-09-28T11:02:58.077Z,32.90
2017-09-28T11:05:26.714Z,31.33
2017-09-28T11:07:55.337Z,30.10
2017-09-28T11:10:24.001Z,27.90
2017-09-28T11:12:52.606Z,33.27
2017-09-28T11:15:21.281Z,30.23
2017-09-28T11:17:49.898Z,29.27
2017-09-28T11:20:18.572Z,27.20
2017-09-28T11:22:47.194Z,28.10
2017-09-28T11:25:15.858Z,27.50
2017-09-28T11:27:44.504Z,26.60
2017-09-28T11:30:13.209Z,30.13
2017-09-28T11:32:41.883Z,28.03
2017-09-28T11:35:10.516Z,28.20
2017-09-28T11:37:39.137Z,27.60
2017-09-28T11:40:07.800Z,30.20
2017-09-28T11:42:36.469Z,28.13
2017-09-28T11:45:05.171Z,28.73
2017-09-28T11:47:33.790Z,28.37
2017-09-28T11:50:02.448Z,28.70
2017-09-28T11:52:31.076Z,28.77
2017-09-28T11:54:59.822Z,28.10
2017-09-28T11:57:28.449Z,28.47
2017-09-28T11:59:57.115Z,29.40
2017-09-28T12:02:25.829Z,28.30
2017-09-28T12:04:54.469Z,28.07
2017-09-28T12:07:23.226Z,28.27
2017-09-28T12:09:51.923Z,27.73
2017-09-28T12:12:20.593Z,28.07
2017-09-28T12:14:49.230Z,28.53
2017-09-28T12:17:17.885Z,29.70
2017-09-28T12:19:46.546Z,30.10
2017-09-28T12:22:15.186Z,29.23
2017-09-28T12:24:43.874Z,27.60
2017-09-28T12:27:12.519Z,29.97
2017-09-28T12:29:41.195Z,29.57
2017-09-28T12:32:17.381Z,29.33
2017-09-28T12:35:03.279Z,32.37
2017-09-28T12:37:32.097Z,29.50
2017-09-28T12:40:00.759Z,30.83
2017-09-28T12:42:29.435Z,31.00
2017-09-28T12:47:42.735Z,32.60
2017-09-28T12:50:11.369Z,30.57
2017-09-28T12:52:40.069Z,31.87
2017-09-28T12:55:08.720Z,29.87
2017-09-28T12:57:37.626Z,33.10
2017-09-28T13:00:06.278Z,32.80
2017-09-28T13:02:34.970Z,32.97
2017-09-28T13:05:10.622Z,32.47
2017-09-28T13:07:39.345Z,31.77
2017-09-28T13:10:07.996Z,30.43
2017-09-28T13:12:36.607Z,32.20
2017-09-28T13:15:05.295Z,33.00
2017-09-28T13:17:33.911Z,31.00
2017-09-28T13:20:02.565Z,33.40
2017-09-28T13:22:31.286Z,31.63
2017-09-28T13:25:00.034Z,30.77
2017-09-28T13:27:28.720Z,31.17
2017-09-28T13:29:57.382Z,31.57
2017-09-28T13:32:26.054Z,31.93
2017-09-28T13:34:54.662Z,31.77
2017-09-28T13:37:25.485Z,31.33
2017-09-28T13:39:54.170Z,33.50
2017-09-28T13:42:22.782Z,31.20
2017-09-28T13:44:51.393Z,31.57
2017-09-28T13:47:20.081Z,30.77
2017-09-28T13:49:48.754Z,30.90
2017-09-28T13:52:17.405Z,32.50
2017-09-28T13:54:46.018Z,33.37
2017-09-28T13:57:14.678Z,30.60
2017-09-28T13:59:43.303Z,31.77
2017-09-28T14:02:11.978Z,28.67
2017-09-28T14:04:40.594Z,31.13
2017-09-28T14:07:09.209Z,32.20
2017-09-28T14:09:37.869Z,32.13
2017-09-28T14:12:06.478Z,30.60
2017-09-28T14:14:35.131Z,31.40
2017-09-28T14:17:03.802Z,31.77
2017-09-28T14:19:32.466Z,31.97
2017-09-28T14:22:01.110Z,32.00
2017-09-28T14:24:29.728Z,32.10
2017-09-28T14:26:58.378Z,31.33
2017-09-28T14:29:26.986Z,32.10
2017-09-28T14:31:55.646Z,29.17
2017-09-28T14:34:24.262Z,30.80
2017-09-28T14:36:52.958Z,29.27
2017-09-28T14:39:21.594Z,29.97
2017-09-28T14:41:50.202Z,31.10
2017-09-28T14:44:18.865Z,31.57
2017-09-28T14:46:47.469Z,29.90
2017-09-28T14:49:16.127Z,31.73
2017-09-28T14:51:44.599Z,31.30
2017-09-28T14:54:13.309Z,32.20
2017-09-28T14:56:41.770Z,31.23
2017-09-28T14:59:10.385Z,32.60
2017-09-28T15:01:39.046Z,32.83
2017-09-28T15:04:07.673Z,32.50
2017-09-28T15:06:36.334Z,30.03
2017-09-28T15:09:04.440Z,29.30
2017-09-28T15:11:33.094Z,30.17
2017-09-28T15:14:01.737Z,30.57
2017-09-28T15:16:30.384Z,29.90
2017-09-28T15:18:59.046Z,30.87
2017-09-28T15:21:27.685Z,31.33
2017-09-28T15:23:56.370Z,29.93
2017-09-28T15:26:24.985Z,29.70
2017-09-28T15:28:53.593Z,32.73
2017-09-28T15:31:22.245Z,32.17
2017-09-28T15:33:50.878Z,30.40
2017-09-28T15:36:19.529Z,33.47
2017-09-28T15:38:48.137Z,30.87
2017-09-28T15:41:16.815Z,32.50
2017-09-28T15:43:45.437Z,30.50
2017-09-28T15:46:14.056Z,32.23
2017-09-28T15:48:42.726Z,30.87
2017-09-28T15:51:11.343Z,32.20
2017-09-28T15:53:39.993Z,31.97
2017-09-28T15:56:08.609Z,32.90
2017-09-28T15:58:37.266Z,33.03
2017-09-28T16:01:05.920Z,31.87
2017-09-28T16:03:34.588Z,32.50
2017-09-28T16:06:03.201Z,32.00
2017-09-28T16:08:35.813Z,31.87
2017-09-28T16:11:04.501Z,32.33
2017-09-28T16:13:33.190Z,35.00
2017-09-28T16:16:01.814Z,32.70
2017-09-28T16:18:30.479Z,32.53
2017-09-28T16:20:59.097Z,32.87
2017-09-28T16:23:27.747Z,32.00
2017-09-28T16:32:58.434Z,31.67
2017-09-28T16:35:39.839Z,33.63
2017-09-28T16:38:10.424Z,32.90
2017-09-28T16:40:39.123Z,32.50
2017-09-28T16:43:07.795Z,32.73
2017-09-28T16:45:36.450Z,33.90
2017-09-28T16:48:05.133Z,32.47
2017-09-28T16:50:37.585Z,34.20
2017-09-28T16:53:09.430Z,37.10
2017-09-28T16:55:41.024Z,36.90
2017-09-28T16:58:10.629Z,35.17
2017-09-28T17:00:39.453Z,35.03
2017-09-28T17:03:08.066Z,38.47
2017-09-28T17:05:36.742Z,35.20
2017-09-28T17:08:05.383Z,34.40
2017-09-28T17:10:34.042Z,32.87
2017-09-28T17:13:02.519Z,34.80
2017-09-28T17:15:31.179Z,33.47
2017-09-28T17:17:59.642Z,37.10
2017-09-28T17:20:28.257Z,37.37
2017-09-28T17:22:56.772Z,39.17
2017-09-28T17:25:25.243Z,38.17
2017-09-28T17:27:53.894Z,38.07
2017-09-28T17:30:22.515Z,41.00
2017-09-28T17:32:51.127Z,44.90
2017-09-28T17:35:19.805Z,40.13
2017-09-28T17:37:48.413Z,39.37
2017-09-28T17:40:17.080Z,39.17
2017-09-28T17:42:45.685Z,38.67
2017-09-28T17:45:14.373Z,35.67
2017-09-28T17:47:42.856Z,34.57
2017-09-28T17:50:11.482Z,36.73
2017-09-28T17:52:40.142Z,36.90
2017-09-28T17:55:08.757Z,35.50
2017-09-28T17:57:37.414Z,34.50
2017-09-28T18:00:06.025Z,35.33
2017-09-28T18:02:34.681Z,34.83
2017-09-28T18:05:03.294Z,33.17
2017-09-28T18:07:31.904Z,34.70
2017-09-28T18:10:00.571Z,34.40
2017-09-28T18:12:29.205Z,32.33
2017-09-28T18:14:57.853Z,33.13
2017-09-28T18:17:26.465Z,34.97
2017-09-28T18:19:55.143Z,34.00
2017-09-28T18:22:23.791Z,32.90
2017-09-28T18:24:52.406Z,31.87
2017-09-28T18:27:21.069Z,32.67
2017-09-28T18:29:49.538Z,30.97
2017-09-28T18:32:18.182Z,33.47
2017-09-28T18:34:46.837Z,33.00
2017-09-28T18:37:15.454Z,30.87
2017-09-28T18:39:44.100Z,31.00
2017-09-28T18:42:12.711Z,33.33
2017-09-28T18:44:41.361Z,31.97
2017-09-28T18:47:10.026Z,33.13
2017-09-28T18:49:38.642Z,31.20
2017-09-28T18:52:07.308Z,33.10
2017-09-28T18:54:35.950Z,32.83
2017-09-28T18:57:04.613Z,30.80
2017-09-28T18:59:33.242Z,30.93
2017-09-28T19:02:01.918Z,31.17
2017-09-28T19:04:30.381Z,31.33
2017-09-28T19:06:58.906Z,32.63
2017-09-28T19:09:27.436Z,31.83
2017-09-28T19:11:55.928Z,29.47
2017-09-28T19:14:24.610Z,31.77
2017-09-28T19:16:53.256Z,31.53
2017-09-28T19:19:21.727Z,31.37
2017-09-28T19:21:50.399Z,30.70
2017-09-28T19:24:19.238Z,29.93
2017-09-28T19:26:47.895Z,30.73
2017-09-28T19:29:16.363Z,30.10
2017-09-28T19:31:44.886Z,31.37
2017-09-28T19:34:13.544Z,30.50
2017-09-28T19:36:42.231Z,30.53
2017-09-28T19:39:10.853Z,31.53
2017-09-28T19:41:39.498Z,29.20
2017-09-28T19:44:08.109Z,28.23
2017-09-28T19:46:36.763Z,30.40
2017-09-28T19:49:05.217Z,28.97
2017-09-28T19:51:33.899Z,29.07
2017-09-28T19:54:02.374Z,28.13
2017-09-28T19:56:30.845Z,30.23
2017-09-28T19:58:59.382Z,29.60
2017-09-28T20:01:27.984Z,29.00
2017-09-28T20:03:56.648Z,28.57
2017-09-28T20:06:25.254Z,28.07
2017-09-28T20:08:53.869Z,29.03
2017-09-28T20:11:22.545Z,27.00
2017-09-28T20:13:51.206Z,26.60
2017-09-28T20:16:19.882Z,26.43
2017-09-28T20:18:48.517Z,27.87
2017-09-28T20:21:16.978Z,26.60
2017-09-28T20:23:45.641Z,28.03
2017-09-28T20:26:14.258Z,26.87
2017-09-28T20:28:42.919Z,26.70
2017-09-28T20:31:11.576Z,27.50
2017-09-28T20:33:40.227Z,28.57
2017-09-28T20:36:08.846Z,26.10
2017-09-28T20:38:37.540Z,27.27
2017-09-28T20:41:06.170Z,26.93
2017-09-28T20:43:34.782Z,27.97
2017-09-28T20:46:03.465Z,26.70
2017-09-28T20:48:33.928Z,28.60
2017-09-28T20:51:02.319Z,26.73
2017-09-28T20:53:30.617Z,27.83
2017-09-28T20:55:59.245Z,25.77
2017-09-28T20:58:27.901Z,23.93
2017-09-28T21:00:56.773Z,26.80
2017-09-28T21:03:25.462Z,25.07
2017-09-28T21:05:54.089Z,26.70
2017-09-28T21:08:22.745Z,25.07
2017-09-28T21:10:51.402Z,26.03
2017-09-28T21:13:20.022Z,25.20
2017-09-28T21:15:48.673Z,26.20
2017-09-28T21:18:17.278Z,23.50
2017-09-28T21:20:45.941Z,25.30
2017-09-28T21:23:14.551Z,23.40
2017-09-28T21:25:43.230Z,23.43
2017-09-28T21:28:11.859Z,24.80
2017-09-28T21:30:40.898Z,24.53
2017-09-28T21:33:09.758Z,22.50
2017-09-28T21:35:38.415Z,23.87
2017-09-28T21:38:06.926Z,22.20
2017-09-28T21:40:35.543Z,22.53
2017-09-28T21:43:04.150Z,22.97
2017-09-28T21:45:32.687Z,22.70
2017-09-28T21:48:01.328Z,21.80
2017-09-28T21:50:30.972Z,21.17
2017-09-28T21:53:04.069Z,22.60
2017-09-28T21:55:44.685Z,21.70
2017-09-28T21:58:16.944Z,20.77
2017-09-28T22:00:48.590Z,21.50
2017-09-28T22:03:20.288Z,23.10
2017-09-28T22:05:57.846Z,21.73
2017-09-28T22:08:33.963Z,23.07
2017-09-28T22:11:03.967Z,21.63
2017-09-28T22:13:47.132Z,23.30
2017-09-28T22:16:18.328Z,21.77
2017-09-28T22:18:52.077Z,20.77
2017-09-28T22:21:25.006Z,23.43
2017-09-28T22:23:59.217Z,21.30
2017-09-28T22:26:29.493Z,21.60
2017-09-28T22:28:59.040Z,20.13
2017-09-28T22:31:29.331Z,22.57
2017-09-28T22:33:59.665Z,22.37
2017-09-28T22:36:29.781Z,22.47
2017-09-28T22:39:00.334Z,22.63
2017-09-28T22:41:30.848Z,21.80
2017-09-28T22:43:59.501Z,22.80
2017-09-28T22:46:28.114Z,22.60
2017-09-28T22:48:56.743Z,22.63
2017-09-28T22:51:25.401Z,22.20
2017-09-28T22:53:54.013Z,23.53
2017-09-28T22:56:22.672Z,22.27
2017-09-28T22:58:51.273Z,21.27
2017-09-28T23:01:19.977Z,23.30
2017-09-28T23:03:48.589Z,22.97
2017-09-28T23:06:17.044Z,20.73
2017-09-28T23:08:45.707Z,22.30
2017-09-28T23:11:14.325Z,22.63
2017-09-28T23:13:42.985Z,22.47
2017-09-28T23:16:11.606Z,21.90
2017-09-28T23:18:40.236Z,24.57
2017-09-28T23:21:09.006Z,22.30
2017-09-28T23:23:37.642Z,22.70
2017-09-28T23:26:06.161Z,22.73
2017-09-28T23:28:37.647Z,22.60
2017-09-28T23:31:06.262Z,21.33
2017-09-28T23:33:34.954Z,23.50
2017-09-28T23:36:03.564Z,22.70
2017-09-28T23:38:35.678Z,24.10
2017-09-28T23:41:04.277Z,22.97
2017-09-28T23:43:34.812Z,20.77
2017-09-28T23:46:03.473Z,20.53
2017-09-28T23:48:35.561Z,22.07
2017-09-28T23:51:04.241Z,21.97
2017-09-28T23:53:32.846Z,21.20
2017-09-28T23:56:01.469Z,21.17
2017-09-28T23:58:30.143Z,21.33
